Airfield :
LOGIN :

Register | Disclaimer

   EN    FR    IT 

 










Legend :    VFR   Marginal VFR   IFR   Intensive IFR   Very Intensive IFR
Visi :
Ceiling :
>= 8 km
>= 3000ft
5 to 8 km
1000 to 3000 ft
1500m to 5 km
500 to 1000 ft
800 to 1500m
200 to 500 ft
< 800m
< 200 ft
Symbols :   Thunderstorms  Fog  Heavy snow  Heavy precipitations  Wind > 20 kt
SIGMETs :     Misc.  Thunderstorms  Icing  Turbulence  Mountain Waves  Volcanic Ashes







- Airport Elevation : 30 ft
- IATA code : CFN


EIDL - Donegal

CURRENT METAR :
  • 211200Z 33014KT 9999 FEW027 13/07 Q1033

EXPIRED METARs :
  • 211130Z 34014KT 9999 FEW025 14/07 Q1032
  • 211100Z 34014KT 9999 SCT025 13/06 Q1032
  • 211030Z 34014KT 9999 FEW026 13/06 Q1032
  • 211000Z 34013KT 9999 FEW026 13/06 Q1032
  • 210930Z 34014KT 9999 FEW025 13/06 Q1031

TAF TAF EIDL
Valid from the 21 at 12:00 until the 21 at 21:00 UTC


211100Z 2112/2121 34013KT 9999 SCT025
No reported NOTAMs for that airfield.



MET'MAP, your aeronautical weather chart ! - Copyright ORBIFLY December 2007 - Disclaimer

ORBIFLY MET'MAP TEAM :

Programming & Development : Alexandra Zaïnal
Concept & Development : Baudouin d'Aumeries
Co-Development & Prog : Marc-Olivier Méhu
Technical & hardware support : Manuel Goepfert

Contact : metmap@orbifly.com




SOURCES & CREDITS :

   NOAA